sensor_id;sensor_type;location;lat;lon;timestamp;P1;durP1;ratioP1;P2;durP2;ratioP2
69716;SDS011;65362;46.144;19.666;2022-12-29T00:01:43;34.80;;;23.20;;
69716;SDS011;65362;46.144;19.666;2022-12-29T00:04:11;38.60;;;23.75;;
69716;SDS011;65362;46.144;19.666;2022-12-29T00:06:42;38.97;;;24.83;;
69716;SDS011;65362;46.144;19.666;2022-12-29T00:09:13;36.10;;;23.25;;
69716;SDS011;65362;46.144;19.666;2022-12-29T00:11:41;35.55;;;23.25;;
69716;SDS011;65362;46.144;19.666;2022-12-29T00:14:09;37.90;;;23.63;;
69716;SDS011;65362;46.144;19.666;2022-12-29T00:16:56;39.78;;;23.80;;
69716;SDS011;65362;46.144;19.666;2022-12-29T00:19:24;42.85;;;24.80;;
69716;SDS011;65362;46.144;19.666;2022-12-29T00:22:11;38.65;;;23.92;;
69716;SDS011;65362;46.144;19.666;2022-12-29T00:25:00;39.90;;;25.38;;
69716;SDS011;65362;46.144;19.666;2022-12-29T00:27:47;51.03;;;26.23;;
69716;SDS011;65362;46.144;19.666;2022-12-29T00:30:33;41.22;;;25.38;;
69716;SDS011;65362;46.144;19.666;2022-12-29T00:33:25;38.97;;;25.20;;
69716;SDS011;65362;46.144;19.666;2022-12-29T00:39:09;41.67;;;25.95;;
69716;SDS011;65362;46.144;19.666;2022-12-29T00:42:03;42.00;;;25.58;;
69716;SDS011;65362;46.144;19.666;2022-12-29T00:44:49;41.30;;;25.52;;
69716;SDS011;65362;46.144;19.666;2022-12-29T00:47:17;40.67;;;26.00;;
69716;SDS011;65362;46.144;19.666;2022-12-29T00:49:44;41.20;;;26.48;;
69716;SDS011;65362;46.144;19.666;2022-12-29T00:52:12;42.97;;;26.58;;
69716;SDS011;65362;46.144;19.666;2022-12-29T00:54:40;43.70;;;27.48;;
69716;SDS011;65362;46.144;19.666;2022-12-29T00:57:09;43.13;;;26.50;;
69716;SDS011;65362;46.144;19.666;2022-12-29T00:59:37;46.30;;;27.70;;
69716;SDS011;65362;46.144;19.666;2022-12-29T01:02:06;49.10;;;26.08;;
69716;SDS011;65362;46.144;19.666;2022-12-29T01:04:34;43.35;;;26.33;;
69716;SDS011;65362;46.144;19.666;2022-12-29T01:07:02;43.35;;;27.83;;
69716;SDS011;65362;46.144;19.666;2022-12-29T01:09:29;43.72;;;27.85;;
69716;SDS011;65362;46.144;19.666;2022-12-29T01:15:04;40.75;;;26.25;;
69716;SDS011;65362;46.144;19.666;2022-12-29T01:17:33;42.38;;;27.52;;
69716;SDS011;65362;46.144;19.666;2022-12-29T01:20:01;41.33;;;27.02;;
69716;SDS011;65362;46.144;19.666;2022-12-29T01:22:30;40.75;;;26.35;;
69716;SDS011;65362;46.144;19.666;2022-12-29T01:24:57;40.20;;;25.85;;
69716;SDS011;65362;46.144;19.666;2022-12-29T01:27:25;42.55;;;26.05;;
69716;SDS011;65362;46.144;19.666;2022-12-29T01:29:52;43.13;;;27.52;;
69716;SDS011;65362;46.144;19.666;2022-12-29T01:32:20;42.63;;;27.35;;
69716;SDS011;65362;46.144;19.666;2022-12-29T01:34:48;41.90;;;26.52;;
69716;SDS011;65362;46.144;19.666;2022-12-29T01:37:15;41.17;;;26.75;;
69716;SDS011;65362;46.144;19.666;2022-12-29T01:39:44;38.95;;;25.17;;
69716;SDS011;65362;46.144;19.666;2022-12-29T01:42:14;41.42;;;25.90;;
69716;SDS011;65362;46.144;19.666;2022-12-29T01:44:51;42.97;;;26.75;;
69716;SDS011;65362;46.144;19.666;2022-12-29T01:49:58;38.60;;;25.67;;
69716;SDS011;65362;46.144;19.666;2022-12-29T01:52:30;37.10;;;25.33;;
69716;SDS011;65362;46.144;19.666;2022-12-29T01:55:02;40.90;;;26.35;;
69716;SDS011;65362;46.144;19.666;2022-12-29T01:57:33;43.50;;;27.08;;
69716;SDS011;65362;46.144;19.666;2022-12-29T02:00:05;40.78;;;25.65;;
69716;SDS011;65362;46.144;19.666;2022-12-29T02:02:50;39.58;;;25.02;;
69716;SDS011;65362;46.144;19.666;2022-12-29T02:08:05;40.67;;;25.02;;
69716;SDS011;65362;46.144;19.666;2022-12-29T02:10:34;39.03;;;25.80;;
69716;SDS011;65362;46.144;19.666;2022-12-29T02:13:03;38.83;;;25.13;;
69716;SDS011;65362;46.144;19.666;2022-12-29T02:18:32;34.78;;;22.33;;
69716;SDS011;65362;46.144;19.666;2022-12-29T02:51:03;35.92;;;23.98;;
69716;SDS011;65362;46.144;19.666;2022-12-29T02:53:36;32.63;;;22.58;;
69716;SDS011;65362;46.144;19.666;2022-12-29T02:56:23;32.90;;;22.63;;
69716;SDS011;65362;46.144;19.666;2022-12-29T02:58:52;32.47;;;22.38;;
69716;SDS011;65362;46.144;19.666;2022-12-29T03:04:18;36.17;;;22.37;;
69716;SDS011;65362;46.144;19.666;2022-12-29T03:07:12;32.28;;;22.20;;
69716;SDS011;65362;46.144;19.666;2022-12-29T03:12:42;30.45;;;21.25;;
69716;SDS011;65362;46.144;19.666;2022-12-29T03:15:55;33.63;;;22.20;;
69716;SDS011;65362;46.144;19.666;2022-12-29T03:18:36;33.05;;;21.80;;
69716;SDS011;65362;46.144;19.666;2022-12-29T03:21:10;30.83;;;21.55;;
69716;SDS011;65362;46.144;19.666;2022-12-29T03:23:42;32.63;;;20.58;;
69716;SDS011;65362;46.144;19.666;2022-12-29T03:26:16;28.33;;;19.77;;
69716;SDS011;65362;46.144;19.666;2022-12-29T03:28:50;32.90;;;21.67;;
69716;SDS011;65362;46.144;19.666;2022-12-29T03:31:24;28.15;;;18.98;;
69716;SDS011;65362;46.144;19.666;2022-12-29T03:33:53;29.65;;;20.15;;
69716;SDS011;65362;46.144;19.666;2022-12-29T03:39:28;28.33;;;19.15;;
69716;SDS011;65362;46.144;19.666;2022-12-29T03:41:58;26.67;;;19.20;;
69716;SDS011;65362;46.144;19.666;2022-12-29T03:44:33;29.10;;;19.50;;
69716;SDS011;65362;46.144;19.666;2022-12-29T03:47:04;28.95;;;19.42;;
69716;SDS011;65362;46.144;19.666;2022-12-29T03:49:33;29.13;;;19.23;;
69716;SDS011;65362;46.144;19.666;2022-12-29T03:52:03;25.05;;;18.08;;
69716;SDS011;65362;46.144;19.666;2022-12-29T03:54:36;26.67;;;19.08;;
69716;SDS011;65362;46.144;19.666;2022-12-29T03:57:03;25.48;;;17.75;;
69716;SDS011;65362;46.144;19.666;2022-12-29T03:59:51;26.40;;;18.95;;
69716;SDS011;65362;46.144;19.666;2022-12-29T04:02:18;24.67;;;17.80;;
69716;SDS011;65362;46.144;19.666;2022-12-29T04:04:46;25.27;;;18.20;;
69716;SDS011;65362;46.144;19.666;2022-12-29T04:07:14;25.60;;;17.73;;
69716;SDS011;65362;46.144;19.666;2022-12-29T04:09:42;25.55;;;18.30;;
69716;SDS011;65362;46.144;19.666;2022-12-29T04:12:14;27.02;;;17.48;;
69716;SDS011;65362;46.144;19.666;2022-12-29T04:14:41;25.13;;;17.77;;
69716;SDS011;65362;46.144;19.666;2022-12-29T04:17:09;23.67;;;17.45;;
69716;SDS011;65362;46.144;19.666;2022-12-29T04:19:37;26.42;;;16.80;;
69716;SDS011;65362;46.144;19.666;2022-12-29T04:22:05;23.77;;;16.50;;
69716;SDS011;65362;46.144;19.666;2022-12-29T04:24:34;24.88;;;16.77;;
69716;SDS011;65362;46.144;19.666;2022-12-29T04:27:02;22.92;;;15.88;;
69716;SDS011;65362;46.144;19.666;2022-12-29T04:29:52;22.35;;;16.20;;
69716;SDS011;65362;46.144;19.666;2022-12-29T04:32:55;22.00;;;16.30;;
69716;SDS011;65362;46.144;19.666;2022-12-29T04:35:23;23.00;;;16.25;;
69716;SDS011;65362;46.144;19.666;2022-12-29T04:37:50;22.73;;;16.25;;
69716;SDS011;65362;46.144;19.666;2022-12-29T04:40:18;23.25;;;15.40;;
69716;SDS011;65362;46.144;19.666;2022-12-29T04:42:45;22.25;;;15.82;;
69716;SDS011;65362;46.144;19.666;2022-12-29T04:45:13;20.90;;;15.40;;
69716;SDS011;65362;46.144;19.666;2022-12-29T04:47:59;20.92;;;15.48;;
69716;SDS011;65362;46.144;19.666;2022-12-29T04:50:42;22.67;;;15.93;;
69716;SDS011;65362;46.144;19.666;2022-12-29T04:53:16;24.70;;;14.65;;
69716;SDS011;65362;46.144;19.666;2022-12-29T04:55:48;19.85;;;15.18;;
69716;SDS011;65362;46.144;19.666;2022-12-29T04:58:17;20.48;;;14.80;;
69716;SDS011;65362;46.144;19.666;2022-12-29T05:00:50;20.10;;;14.93;;
69716;SDS011;65362;46.144;19.666;2022-12-29T05:03:20;19.98;;;14.57;;
69716;SDS011;65362;46.144;19.666;2022-12-29T05:05:48;19.90;;;14.52;;
69716;SDS011;65362;46.144;19.666;2022-12-29T05:08:16;20.45;;;14.52;;
69716;SDS011;65362;46.144;19.666;2022-12-29T05:10:46;19.65;;;14.48;;
69716;SDS011;65362;46.144;19.666;2022-12-29T05:13:17;21.23;;;15.32;;
69716;SDS011;65362;46.144;19.666;2022-12-29T05:15:47;19.63;;;14.60;;
69716;SDS011;65362;46.144;19.666;2022-12-29T05:18:20;18.05;;;13.70;;
69716;SDS011;65362;46.144;19.666;2022-12-29T05:20:48;19.45;;;14.65;;
69716;SDS011;65362;46.144;19.666;2022-12-29T05:23:17;18.77;;;14.27;;
69716;SDS011;65362;46.144;19.666;2022-12-29T05:25:50;19.70;;;14.05;;
69716;SDS011;65362;46.144;19.666;2022-12-29T05:28:26;17.38;;;13.60;;
69716;SDS011;65362;46.144;19.666;2022-12-29T05:30:58;18.80;;;13.82;;
69716;SDS011;65362;46.144;19.666;2022-12-29T05:33:27;19.58;;;14.10;;
69716;SDS011;65362;46.144;19.666;2022-12-29T05:35:54;17.55;;;12.98;;
69716;SDS011;65362;46.144;19.666;2022-12-29T05:38:23;17.00;;;12.73;;
69716;SDS011;65362;46.144;19.666;2022-12-29T05:40:50;17.42;;;13.40;;
69716;SDS011;65362;46.144;19.666;2022-12-29T05:43:40;17.35;;;13.38;;
69716;SDS011;65362;46.144;19.666;2022-12-29T05:46:40;16.65;;;12.93;;
69716;SDS011;65362;46.144;19.666;2022-12-29T05:49:31;17.38;;;13.05;;
69716;SDS011;65362;46.144;19.666;2022-12-29T05:55:08;17.77;;;12.40;;
69716;SDS011;65362;46.144;19.666;2022-12-29T05:57:38;16.70;;;12.52;;
69716;SDS011;65362;46.144;19.666;2022-12-29T06:00:10;17.40;;;12.70;;
69716;SDS011;65362;46.144;19.666;2022-12-29T06:02:40;16.95;;;12.18;;
69716;SDS011;65362;46.144;19.666;2022-12-29T06:05:08;15.90;;;12.57;;
69716;SDS011;65362;46.144;19.666;2022-12-29T06:07:38;16.38;;;12.18;;
69716;SDS011;65362;46.144;19.666;2022-12-29T06:10:05;16.10;;;12.43;;
69716;SDS011;65362;46.144;19.666;2022-12-29T06:12:41;15.23;;;11.88;;
69716;SDS011;65362;46.144;19.666;2022-12-29T06:15:09;18.40;;;12.85;;
69716;SDS011;65362;46.144;19.666;2022-12-29T06:17:39;17.73;;;12.20;;
69716;SDS011;65362;46.144;19.666;2022-12-29T06:20:08;16.33;;;12.80;;
69716;SDS011;65362;46.144;19.666;2022-12-29T06:22:37;16.30;;;12.23;;
69716;SDS011;65362;46.144;19.666;2022-12-29T06:25:05;15.05;;;11.98;;
69716;SDS011;65362;46.144;19.666;2022-12-29T06:27:34;17.88;;;12.85;;
69716;SDS011;65362;46.144;19.666;2022-12-29T06:30:02;14.63;;;11.95;;
69716;SDS011;65362;46.144;19.666;2022-12-29T06:32:30;16.73;;;12.75;;
69716;SDS011;65362;46.144;19.666;2022-12-29T06:35:04;14.40;;;12.05;;
69716;SDS011;65362;46.144;19.666;2022-12-29T06:37:36;16.05;;;12.15;;
69716;SDS011;65362;46.144;19.666;2022-12-29T06:40:04;16.15;;;12.30;;
69716;SDS011;65362;46.144;19.666;2022-12-29T06:42:48;15.43;;;12.00;;
69716;SDS011;65362;46.144;19.666;2022-12-29T06:45:39;16.00;;;12.40;;
69716;SDS011;65362;46.144;19.666;2022-12-29T06:48:07;15.38;;;11.43;;
69716;SDS011;65362;46.144;19.666;2022-12-29T06:50:35;14.50;;;11.88;;
69716;SDS011;65362;46.144;19.666;2022-12-29T06:53:02;16.33;;;11.73;;
69716;SDS011;65362;46.144;19.666;2022-12-29T06:55:30;16.85;;;12.48;;
69716;SDS011;65362;46.144;19.666;2022-12-29T06:57:58;15.15;;;11.25;;
69716;SDS011;65362;46.144;19.666;2022-12-29T07:00:25;15.73;;;12.63;;
69716;SDS011;65362;46.144;19.666;2022-12-29T07:02:54;14.45;;;11.15;;
69716;SDS011;65362;46.144;19.666;2022-12-29T07:05:22;14.68;;;11.40;;
69716;SDS011;65362;46.144;19.666;2022-12-29T07:07:49;14.98;;;11.80;;
69716;SDS011;65362;46.144;19.666;2022-12-29T07:10:17;15.10;;;11.68;;
69716;SDS011;65362;46.144;19.666;2022-12-29T07:12:44;14.02;;;11.20;;
69716;SDS011;65362;46.144;19.666;2022-12-29T07:15:11;16.75;;;12.15;;
69716;SDS011;65362;46.144;19.666;2022-12-29T07:17:40;14.82;;;11.85;;
69716;SDS011;65362;46.144;19.666;2022-12-29T07:20:07;15.18;;;11.95;;
69716;SDS011;65362;46.144;19.666;2022-12-29T07:22:35;15.45;;;11.93;;
69716;SDS011;65362;46.144;19.666;2022-12-29T07:25:03;16.55;;;12.38;;
69716;SDS011;65362;46.144;19.666;2022-12-29T07:27:31;14.82;;;12.25;;
69716;SDS011;65362;46.144;19.666;2022-12-29T07:29:58;15.70;;;12.18;;
69716;SDS011;65362;46.144;19.666;2022-12-29T07:32:26;15.20;;;11.63;;
69716;SDS011;65362;46.144;19.666;2022-12-29T07:34:53;16.13;;;12.00;;
69716;SDS011;65362;46.144;19.666;2022-12-29T07:37:21;14.82;;;11.40;;
69716;SDS011;65362;46.144;19.666;2022-12-29T07:39:48;15.68;;;11.98;;
69716;SDS011;65362;46.144;19.666;2022-12-29T07:42:15;16.48;;;12.27;;
69716;SDS011;65362;46.144;19.666;2022-12-29T07:44:49;16.20;;;12.13;;
69716;SDS011;65362;46.144;19.666;2022-12-29T07:47:32;18.40;;;12.48;;
69716;SDS011;65362;46.144;19.666;2022-12-29T07:50:00;16.92;;;12.57;;
69716;SDS011;65362;46.144;19.666;2022-12-29T07:52:27;16.98;;;12.85;;
69716;SDS011;65362;46.144;19.666;2022-12-29T07:54:55;25.80;;;13.43;;
69716;SDS011;65362;46.144;19.666;2022-12-29T07:57:22;18.48;;;12.63;;
69716;SDS011;65362;46.144;19.666;2022-12-29T07:59:57;16.73;;;12.80;;
69716;SDS011;65362;46.144;19.666;2022-12-29T08:02:25;16.55;;;13.07;;
69716;SDS011;65362;46.144;19.666;2022-12-29T08:04:56;19.05;;;13.15;;
69716;SDS011;65362;46.144;19.666;2022-12-29T08:07:24;16.45;;;13.00;;
69716;SDS011;65362;46.144;19.666;2022-12-29T08:09:51;16.88;;;12.63;;
69716;SDS011;65362;46.144;19.666;2022-12-29T08:12:19;16.50;;;12.90;;
69716;SDS011;65362;46.144;19.666;2022-12-29T08:14:46;16.60;;;12.65;;
69716;SDS011;65362;46.144;19.666;2022-12-29T08:17:14;16.65;;;12.70;;
69716;SDS011;65362;46.144;19.666;2022-12-29T08:19:41;21.00;;;13.75;;
69716;SDS011;65362;46.144;19.666;2022-12-29T08:22:09;23.23;;;13.48;;
69716;SDS011;65362;46.144;19.666;2022-12-29T08:24:37;18.20;;;13.75;;
69716;SDS011;65362;46.144;19.666;2022-12-29T08:27:04;17.73;;;13.68;;
69716;SDS011;65362;46.144;19.666;2022-12-29T08:29:43;19.33;;;13.45;;
69716;SDS011;65362;46.144;19.666;2022-12-29T08:32:11;18.25;;;13.77;;
69716;SDS011;65362;46.144;19.666;2022-12-29T08:34:39;16.77;;;12.90;;
69716;SDS011;65362;46.144;19.666;2022-12-29T08:37:06;18.92;;;13.60;;
69716;SDS011;65362;46.144;19.666;2022-12-29T08:39:34;18.25;;;13.38;;
69716;SDS011;65362;46.144;19.666;2022-12-29T08:42:01;17.20;;;13.90;;
69716;SDS011;65362;46.144;19.666;2022-12-29T08:44:29;20.42;;;14.10;;
69716;SDS011;65362;46.144;19.666;2022-12-29T08:46:56;19.33;;;14.13;;
69716;SDS011;65362;46.144;19.666;2022-12-29T08:49:23;18.35;;;13.15;;
69716;SDS011;65362;46.144;19.666;2022-12-29T08:51:51;18.23;;;13.88;;
69716;SDS011;65362;46.144;19.666;2022-12-29T08:54:18;18.30;;;13.20;;
69716;SDS011;65362;46.144;19.666;2022-12-29T08:56:46;18.88;;;13.57;;
69716;SDS011;65362;46.144;19.666;2022-12-29T08:59:15;20.65;;;15.27;;
69716;SDS011;65362;46.144;19.666;2022-12-29T09:01:45;20.35;;;14.63;;
69716;SDS011;65362;46.144;19.666;2022-12-29T09:04:12;20.13;;;13.70;;
69716;SDS011;65362;46.144;19.666;2022-12-29T09:06:44;18.80;;;14.27;;
69716;SDS011;65362;46.144;19.666;2022-12-29T09:09:12;19.48;;;14.07;;
69716;SDS011;65362;46.144;19.666;2022-12-29T09:11:39;17.83;;;13.45;;
69716;SDS011;65362;46.144;19.666;2022-12-29T09:14:07;18.00;;;14.10;;
69716;SDS011;65362;46.144;19.666;2022-12-29T09:16:35;19.25;;;14.85;;
69716;SDS011;65362;46.144;19.666;2022-12-29T09:19:03;20.60;;;14.80;;
69716;SDS011;65362;46.144;19.666;2022-12-29T09:21:31;21.55;;;15.25;;
69716;SDS011;65362;46.144;19.666;2022-12-29T09:24:00;20.70;;;14.68;;
69716;SDS011;65362;46.144;19.666;2022-12-29T09:26:27;19.30;;;15.02;;
69716;SDS011;65362;46.144;19.666;2022-12-29T09:28:55;22.27;;;15.70;;
69716;SDS011;65362;46.144;19.666;2022-12-29T09:31:23;20.23;;;14.77;;
69716;SDS011;65362;46.144;19.666;2022-12-29T09:33:52;22.85;;;15.35;;
69716;SDS011;65362;46.144;19.666;2022-12-29T09:36:19;20.15;;;14.43;;
69716;SDS011;65362;46.144;19.666;2022-12-29T09:38:47;18.85;;;14.60;;
69716;SDS011;65362;46.144;19.666;2022-12-29T09:41:16;19.90;;;14.77;;
69716;SDS011;65362;46.144;19.666;2022-12-29T09:43:55;22.45;;;15.32;;
69716;SDS011;65362;46.144;19.666;2022-12-29T09:46:41;19.15;;;14.65;;
69716;SDS011;65362;46.144;19.666;2022-12-29T09:52:11;19.27;;;15.00;;
69716;SDS011;65362;46.144;19.666;2022-12-29T09:54:52;22.33;;;15.20;;
69716;SDS011;65362;46.144;19.666;2022-12-29T09:57:50;19.73;;;14.75;;
69716;SDS011;65362;46.144;19.666;2022-12-29T10:00:36;20.73;;;15.00;;
69716;SDS011;65362;46.144;19.666;2022-12-29T10:03:13;18.88;;;14.68;;
69716;SDS011;65362;46.144;19.666;2022-12-29T10:16:39;20.67;;;14.60;;
69716;SDS011;65362;46.144;19.666;2022-12-29T10:24:39;21.38;;;14.23;;
69716;SDS011;65362;46.144;19.666;2022-12-29T10:27:09;19.77;;;14.45;;
69716;SDS011;65362;46.144;19.666;2022-12-29T10:29:49;21.95;;;13.23;;
69716;SDS011;65362;46.144;19.666;2022-12-29T10:35:19;17.08;;;13.18;;
69716;SDS011;65362;46.144;19.666;2022-12-29T10:38:03;18.17;;;13.82;;
69716;SDS011;65362;46.144;19.666;2022-12-29T10:43:28;19.75;;;13.77;;
69716;SDS011;65362;46.144;19.666;2022-12-29T10:45:58;17.65;;;12.98;;
69716;SDS011;65362;46.144;19.666;2022-12-29T10:48:32;17.20;;;13.10;;
69716;SDS011;65362;46.144;19.666;2022-12-29T10:51:02;19.23;;;13.05;;
69716;SDS011;65362;46.144;19.666;2022-12-29T10:53:35;18.73;;;13.38;;
69716;SDS011;65362;46.144;19.666;2022-12-29T10:58:57;20.58;;;12.77;;
69716;SDS011;65362;46.144;19.666;2022-12-29T11:01:37;20.88;;;13.57;;
69716;SDS011;65362;46.144;19.666;2022-12-29T11:04:20;17.15;;;13.35;;
69716;SDS011;65362;46.144;19.666;2022-12-29T11:06:56;17.05;;;13.45;;
69716;SDS011;65362;46.144;19.666;2022-12-29T11:09:27;17.02;;;13.27;;
69716;SDS011;65362;46.144;19.666;2022-12-29T11:12:26;16.13;;;12.15;;
69716;SDS011;65362;46.144;19.666;2022-12-29T11:20:23;18.75;;;13.30;;
69716;SDS011;65362;46.144;19.666;2022-12-29T11:22:54;17.58;;;12.65;;
69716;SDS011;65362;46.144;19.666;2022-12-29T11:25:21;17.73;;;12.10;;
69716;SDS011;65362;46.144;19.666;2022-12-29T11:28:03;19.55;;;12.55;;
69716;SDS011;65362;46.144;19.666;2022-12-29T11:30:42;17.17;;;12.63;;
69716;SDS011;65362;46.144;19.666;2022-12-29T11:33:10;18.00;;;12.52;;
69716;SDS011;65362;46.144;19.666;2022-12-29T11:35:43;17.30;;;12.23;;
69716;SDS011;65362;46.144;19.666;2022-12-29T11:38:54;16.40;;;12.05;;
69716;SDS011;65362;46.144;19.666;2022-12-29T11:41:04;14.88;;;11.60;;
69716;SDS011;65362;46.144;19.666;2022-12-29T11:43:43;18.42;;;12.88;;
69716;SDS011;65362;46.144;19.666;2022-12-29T11:46:14;18.45;;;12.43;;
69716;SDS011;65362;46.144;19.666;2022-12-29T11:48:48;14.48;;;11.43;;
69716;SDS011;65362;46.144;19.666;2022-12-29T11:51:23;19.25;;;12.20;;
69716;SDS011;65362;46.144;19.666;2022-12-29T11:53:59;19.52;;;11.82;;
69716;SDS011;65362;46.144;19.666;2022-12-29T12:02:25;16.65;;;12.48;;
69716;SDS011;65362;46.144;19.666;2022-12-29T12:07:46;17.05;;;12.52;;
69716;SDS011;65362;46.144;19.666;2022-12-29T12:13:16;19.55;;;11.77;;
69716;SDS011;65362;46.144;19.666;2022-12-29T12:18:30;16.85;;;11.35;;
69716;SDS011;65362;46.144;19.666;2022-12-29T12:21:21;16.13;;;11.93;;
69716;SDS011;65362;46.144;19.666;2022-12-29T12:24:00;18.40;;;13.15;;
69716;SDS011;65362;46.144;19.666;2022-12-29T12:29:26;16.95;;;12.40;;
69716;SDS011;65362;46.144;19.666;2022-12-29T12:32:11;17.70;;;12.40;;
69716;SDS011;65362;46.144;19.666;2022-12-29T12:34:52;20.65;;;12.05;;
69716;SDS011;65362;46.144;19.666;2022-12-29T12:37:32;16.52;;;11.85;;
69716;SDS011;65362;46.144;19.666;2022-12-29T12:51:15;16.48;;;12.95;;
69716;SDS011;65362;46.144;19.666;2022-12-29T12:54:00;18.50;;;12.95;;
69716;SDS011;65362;46.144;19.666;2022-12-29T13:02:12;16.98;;;12.90;;
69716;SDS011;65362;46.144;19.666;2022-12-29T13:07:44;18.20;;;12.77;;
69716;SDS011;65362;46.144;19.666;2022-12-29T13:10:41;21.17;;;13.27;;
69716;SDS011;65362;46.144;19.666;2022-12-29T13:24:03;17.02;;;12.43;;
69716;SDS011;65362;46.144;19.666;2022-12-29T13:26:59;18.25;;;12.63;;
69716;SDS011;65362;46.144;19.666;2022-12-29T13:29:40;18.48;;;13.27;;
69716;SDS011;65362;46.144;19.666;2022-12-29T13:32:23;18.30;;;13.20;;
69716;SDS011;65362;46.144;19.666;2022-12-29T13:37:29;16.75;;;12.77;;
69716;SDS011;65362;46.144;19.666;2022-12-29T13:40:02;23.67;;;14.65;;
69716;SDS011;65362;46.144;19.666;2022-12-29T13:42:37;18.67;;;13.30;;
69716;SDS011;65362;46.144;19.666;2022-12-29T13:45:15;20.10;;;14.13;;
69716;SDS011;65362;46.144;19.666;2022-12-29T13:50:35;19.80;;;13.88;;
69716;SDS011;65362;46.144;19.666;2022-12-29T14:01:14;18.83;;;14.80;;
69716;SDS011;65362;46.144;19.666;2022-12-29T14:03:47;20.92;;;15.10;;
69716;SDS011;65362;46.144;19.666;2022-12-29T14:06:27;18.20;;;13.95;;
69716;SDS011;65362;46.144;19.666;2022-12-29T14:09:00;20.20;;;14.85;;
69716;SDS011;65362;46.144;19.666;2022-12-29T14:11:31;19.58;;;14.65;;
69716;SDS011;65362;46.144;19.666;2022-12-29T14:16:48;23.55;;;15.60;;
69716;SDS011;65362;46.144;19.666;2022-12-29T14:19:21;20.60;;;15.23;;
69716;SDS011;65362;46.144;19.666;2022-12-29T14:22:03;21.75;;;15.57;;
69716;SDS011;65362;46.144;19.666;2022-12-29T14:34:53;21.98;;;15.35;;
69716;SDS011;65362;46.144;19.666;2022-12-29T14:42:46;21.23;;;15.45;;
69716;SDS011;65362;46.144;19.666;2022-12-29T14:47:42;19.75;;;14.35;;
69716;SDS011;65362;46.144;19.666;2022-12-29T14:52:46;20.50;;;15.05;;
69716;SDS011;65362;46.144;19.666;2022-12-29T14:57:44;19.40;;;13.85;;
69716;SDS011;65362;46.144;19.666;2022-12-29T15:03:00;23.45;;;13.82;;
69716;SDS011;65362;46.144;19.666;2022-12-29T15:09:24;19.98;;;13.48;;
69716;SDS011;65362;46.144;19.666;2022-12-29T15:14:23;17.45;;;13.00;;
69716;SDS011;65362;46.144;19.666;2022-12-29T15:17:10;21.30;;;13.27;;
69716;SDS011;65362;46.144;19.666;2022-12-29T15:19:50;20.85;;;13.95;;
69716;SDS011;65362;46.144;19.666;2022-12-29T15:22:18;17.25;;;12.98;;
69716;SDS011;65362;46.144;19.666;2022-12-29T15:24:46;21.92;;;13.60;;
69716;SDS011;65362;46.144;19.666;2022-12-29T15:27:19;18.40;;;13.07;;
69716;SDS011;65362;46.144;19.666;2022-12-29T15:29:59;20.73;;;12.63;;
69716;SDS011;65362;46.144;19.666;2022-12-29T15:32:42;17.38;;;13.43;;
69716;SDS011;65362;46.144;19.666;2022-12-29T15:38:14;16.42;;;13.02;;
69716;SDS011;65362;46.144;19.666;2022-12-29T15:40:44;18.30;;;13.10;;
69716;SDS011;65362;46.144;19.666;2022-12-29T15:46:01;16.95;;;12.98;;
69716;SDS011;65362;46.144;19.666;2022-12-29T15:48:29;17.58;;;13.68;;
69716;SDS011;65362;46.144;19.666;2022-12-29T15:50:58;19.42;;;13.50;;
69716;SDS011;65362;46.144;19.666;2022-12-29T15:53:27;21.83;;;13.38;;
69716;SDS011;65362;46.144;19.666;2022-12-29T15:56:02;18.05;;;12.93;;
69716;SDS011;65362;46.144;19.666;2022-12-29T15:58:42;19.13;;;13.35;;
69716;SDS011;65362;46.144;19.666;2022-12-29T16:01:30;18.85;;;12.93;;
69716;SDS011;65362;46.144;19.666;2022-12-29T16:04:01;17.00;;;12.77;;
69716;SDS011;65362;46.144;19.666;2022-12-29T16:06:37;19.65;;;13.40;;
69716;SDS011;65362;46.144;19.666;2022-12-29T16:09:06;16.67;;;13.13;;
69716;SDS011;65362;46.144;19.666;2022-12-29T16:11:41;20.15;;;13.40;;
69716;SDS011;65362;46.144;19.666;2022-12-29T16:14:14;17.08;;;13.27;;
69716;SDS011;65362;46.144;19.666;2022-12-29T16:16:46;17.60;;;12.68;;
69716;SDS011;65362;46.144;19.666;2022-12-29T16:19:21;21.13;;;13.20;;
69716;SDS011;65362;46.144;19.666;2022-12-29T16:21:54;16.77;;;12.98;;
69716;SDS011;65362;46.144;19.666;2022-12-29T16:24:23;17.73;;;12.65;;
69716;SDS011;65362;46.144;19.666;2022-12-29T16:27:02;21.55;;;13.65;;
69716;SDS011;65362;46.144;19.666;2022-12-29T16:29:36;18.17;;;12.80;;
69716;SDS011;65362;46.144;19.666;2022-12-29T16:32:18;17.00;;;12.98;;
69716;SDS011;65362;46.144;19.666;2022-12-29T16:34:53;18.50;;;13.73;;
69716;SDS011;65362;46.144;19.666;2022-12-29T16:37:40;19.85;;;13.15;;
69716;SDS011;65362;46.144;19.666;2022-12-29T16:42:45;20.90;;;13.60;;
69716;SDS011;65362;46.144;19.666;2022-12-29T16:50:34;22.00;;;12.85;;
69716;SDS011;65362;46.144;19.666;2022-12-29T16:53:04;20.45;;;13.07;;
69716;SDS011;65362;46.144;19.666;2022-12-29T16:55:34;17.73;;;12.55;;
69716;SDS011;65362;46.144;19.666;2022-12-29T16:58:01;16.33;;;12.10;;
69716;SDS011;65362;46.144;19.666;2022-12-29T17:00:31;19.30;;;13.10;;
69716;SDS011;65362;46.144;19.666;2022-12-29T17:03:03;17.50;;;12.02;;
69716;SDS011;65362;46.144;19.666;2022-12-29T17:05:31;18.95;;;13.07;;
69716;SDS011;65362;46.144;19.666;2022-12-29T17:07:58;20.60;;;12.48;;
69716;SDS011;65362;46.144;19.666;2022-12-29T17:10:28;17.08;;;12.02;;
69716;SDS011;65362;46.144;19.666;2022-12-29T17:13:14;19.88;;;12.85;;
69716;SDS011;65362;46.144;19.666;2022-12-29T17:15:41;19.27;;;13.27;;
69716;SDS011;65362;46.144;19.666;2022-12-29T17:18:09;23.05;;;12.38;;
69716;SDS011;65362;46.144;19.666;2022-12-29T17:20:40;14.93;;;11.45;;
69716;SDS011;65362;46.144;19.666;2022-12-29T17:23:13;16.23;;;11.75;;
69716;SDS011;65362;46.144;19.666;2022-12-29T17:25:50;16.60;;;12.40;;
69716;SDS011;65362;46.144;19.666;2022-12-29T17:28:19;18.33;;;12.30;;
69716;SDS011;65362;46.144;19.666;2022-12-29T17:30:48;15.68;;;11.48;;
69716;SDS011;65362;46.144;19.666;2022-12-29T17:33:17;16.70;;;11.65;;
69716;SDS011;65362;46.144;19.666;2022-12-29T17:35:46;18.42;;;11.98;;
69716;SDS011;65362;46.144;19.666;2022-12-29T17:38:27;18.13;;;11.77;;
69716;SDS011;65362;46.144;19.666;2022-12-29T17:40:56;17.58;;;12.32;;
69716;SDS011;65362;46.144;19.666;2022-12-29T17:43:24;15.50;;;12.05;;
69716;SDS011;65362;46.144;19.666;2022-12-29T17:46:02;16.77;;;11.60;;
69716;SDS011;65362;46.144;19.666;2022-12-29T17:48:33;16.52;;;11.52;;
69716;SDS011;65362;46.144;19.666;2022-12-29T17:51:00;15.57;;;11.73;;
69716;SDS011;65362;46.144;19.666;2022-12-29T17:53:28;18.13;;;12.32;;
69716;SDS011;65362;46.144;19.666;2022-12-29T17:55:56;16.20;;;11.80;;
69716;SDS011;65362;46.144;19.666;2022-12-29T17:58:25;15.63;;;12.00;;
69716;SDS011;65362;46.144;19.666;2022-12-29T18:00:58;17.17;;;12.00;;